Aérodrome :
LOGIN :

S'inscrire | Disclaimer

   EN    FR    IT 

 










Légende :    VFR   VFR Marginal   IFR   IFR Intensif   IFR Très Intensif
Visi : 
Plafond : 
>= 8 km
>= 3000ft
5 à 8 km
1000 à 3000 ft
1500m à 5 km
500 à 1000 ft
800 à 1500m
200 à 500 ft
< 800m
< 200 ft
Symboles :   Orages  Brouillard  Fortes neiges  Fortes précipitations  Vent > 20 kt
SIGMETs :   Divers  Orages  Givrage  Turbulence  Onde Orograph.  Cendres Volcan.







- Altitude de l'aérodrome : 106 ft
- Code IATA : NRN


EDLV - Weeze

DERNIER METAR :
  • 192150Z 26003KT 5000 BR NSC 11/10 Q1021

METARs EXPIRÉS :
  • 192120Z 25002KT 6000 NSC 11/10 Q1021
  • 192050Z 00000KT 5000 BR NSC 11/10 Q1021
  • 192020Z VRB02KT 5000 BR NSC 11/10 Q1021
  • 191950Z 00000KT 5000 BR NSC 11/11 Q1021
  • 191920Z VRB02KT 6000 NSC 12/11 Q1021

TAF TAF EDLV
Valide du 19 à 18h jusqu'au 20 à 18h UTC


191700Z 1918/2018 27005KT 9999 FEW025
BECMG 1918/1921 VRB03KT
TEMPO 2001/2009 3000 BR BKN012
PROB30
TEMPO 2002/2005 BKN004
BECMG 2007/2010 23007KT
Pas de NOTAMs connus pour ce terrain.



MET'MAP, la Météo Aéronautique d'un coup d'oeil ! - Copyright ORBIFLY Décembre 2007 - Disclaimer

ORBIFLY MET'MAP TEAM :

Programmation & Développement : Alexandra Zaïnal
Conception & Développement : Baudouin d'Aumeries
Co-Programmation & Développement : Marc-Olivier Méhu
Soutien technique & logistique : Manuel Goepfert

Contact : metmap@orbifly.com




SOURCES & CREDITS :

   NOAA